Time;durP1;ratioP1;P1;durP2;ratioP2;P2;SDS_P1;SDS_P2;PMS_P1;PMS_P2;Temp;Humidity;BMP_temperature;BMP_pressure;BME280_temperature;BME280_humidity;BME280_pressure;Samples;Min_cycle;Max_cycle;Signal;HPM_P1;HPM_P2
2022/06/02 00:02:29;;;;;;;;;;;21.80;44.10;;;;;;5050954;28;19917;-77
2022/06/02 00:04:54;;;;;;;;;;;21.80;43.40;;;;;;5049728;28;20027;-77
2022/06/02 00:07:24;;;;;;;;;;;21.70;43.10;;;;;;5041274;28;20000;-77
2022/06/02 00:10:03;;;;;;;;;;;21.70;42.50;;;;;;5051721;28;19917;-77
2022/06/02 00:12:28;;;;;;;;;;;21.60;42.30;;;;;;5043912;28;19919;-77
2022/06/02 00:15:03;;;;;;;;;;;21.60;42.10;;;;;;5033961;28;20542;-77
2022/06/02 00:17:44;;;;;;;;;;;21.50;42.00;;;;;;5052291;28;19919;-77
2022/06/02 00:20:12;;;;;;;;;;;21.40;41.90;;;;;;5046079;28;20008;-77
2022/06/02 00:22:56;;;;;;;;;;;21.40;42.00;;;;;;5052183;28;19913;-77
2022/06/02 00:25:33;;;;;;;;;;;21.30;41.80;;;;;;5049530;28;20396;-76
2022/06/02 00:28:14;;;;;;;;;;;21.30;41.80;;;;;;5050656;28;19966;-76
2022/06/02 00:30:52;;;;;;;;;;;21.30;41.60;;;;;;5042261;28;19909;-76
2022/06/02 00:33:25;;;;;;;;;;;21.30;41.70;;;;;;5045235;28;20312;-76
2022/06/02 00:35:57;;;;;;;;;;;21.20;41.50;;;;;;5050110;28;19924;-76
2022/06/02 00:38:26;;;;;;;;;;;21.20;41.60;;;;;;5037920;28;20369;-76
2022/06/02 00:40:52;;;;;;;;;;;21.20;41.40;;;;;;5050894;28;19919;-76
2022/06/02 00:43:18;;;;;;;;;;;21.10;41.50;;;;;;5052204;28;20053;-76
2022/06/02 00:45:44;;;;;;;;;;;21.10;41.50;;;;;;5033905;28;20397;-76
2022/06/02 00:48:15;;;;;;;;;;;21.10;41.30;;;;;;5046158;28;19913;-76
2022/06/02 00:51:07;;;;;;;;;;;21.00;41.30;;;;;;5045188;28;19999;-76
2022/06/02 00:53:39;;;;;;;;;;;21.00;41.10;;;;;;5031222;28;20325;-76
2022/06/02 00:59:10;;;;;;;;;;;20.90;41.10;;;;;;5046905;28;20035;-76
2022/06/02 01:01:36;;;;;;;;;;;20.90;41.10;;;;;;5029135;28;19982;-77
2022/06/02 01:04:03;;;;;;;;;;;20.90;41.00;;;;;;5036126;28;20377;-77
2022/06/02 01:06:37;;;;;;;;;;;20.90;41.10;;;;;;5033708;28;19936;-77
2022/06/02 01:09:08;;;;;;;;;;;20.90;41.20;;;;;;5036473;28;19908;-77
2022/06/02 01:11:36;;;;;;;;;;;20.80;41.10;;;;;;5052340;28;19909;-77
2022/06/02 01:14:14;;;;;;;;;;;20.80;41.10;;;;;;5030904;28;20015;-77
2022/06/02 01:17:15;;;;;;;;;;;20.80;41.10;;;;;;5047357;28;19924;-77
2022/06/02 01:19:55;;;;;;;;;;;20.70;41.00;;;;;;4992907;28;19921;-77
2022/06/02 01:22:31;;;;;;;;;;;20.70;41.00;;;;;;5049316;28;20321;-76
2022/06/02 01:25:16;;;;;;;;;;;20.70;41.10;;;;;;5039758;28;20283;-77
2022/06/02 01:27:50;;;;;;;;;;;20.70;41.00;;;;;;5024347;28;19913;-77
2022/06/02 01:30:16;;;;;;;;;;;20.60;41.20;;;;;;5031965;28;19921;-76
2022/06/02 01:32:50;;;;;;;;;;;20.60;40.90;;;;;;5050810;28;19913;-76
2022/06/02 01:35:19;;;;;;;;;;;20.60;41.00;;;;;;5044273;28;19927;-76
2022/06/02 01:37:49;;;;;;;;;;;20.60;40.90;;;;;;5047646;28;20270;-76
2022/06/02 01:40:29;;;;;;;;;;;20.60;40.90;;;;;;5045376;28;20305;-76
2022/06/02 01:43:01;;;;;;;;;;;20.50;41.10;;;;;;5038993;28;19917;-76
2022/06/02 01:45:32;;;;;;;;;;;20.50;41.10;;;;;;5039470;28;19963;-76
2022/06/02 01:48:04;;;;;;;;;;;20.50;41.70;;;;;;5041346;28;19913;-76
2022/06/02 01:50:47;;;;;;;;;;;20.50;41.10;;;;;;5045383;28;19917;-76
2022/06/02 01:53:18;;;;;;;;;;;20.50;41.20;;;;;;5044426;28;19913;-76
2022/06/02 01:55:43;;;;;;;;;;;20.40;41.40;;;;;;5041084;28;20389;-76
2022/06/02 01:58:27;;;;;;;;;;;20.40;41.20;;;;;;5048142;28;19995;-76
2022/06/02 02:00:56;;;;;;;;;;;20.40;41.40;;;;;;5037114;28;19916;-76
2022/06/02 02:03:22;;;;;;;;;;;20.40;41.40;;;;;;5050316;28;19932;-76
2022/06/02 02:05:59;;;;;;;;;;;20.40;41.70;;;;;;5041609;28;19940;-76
2022/06/02 02:08:43;;;;;;;;;;;20.40;41.40;;;;;;5047794;28;20331;-76
2022/06/02 02:11:14;;;;;;;;;;;20.30;41.50;;;;;;5043669;28;19925;-76
2022/06/02 02:13:49;;;;;;;;;;;20.30;41.40;;;;;;5047009;28;19913;-76
2022/06/02 02:16:33;;;;;;;;;;;20.30;41.40;;;;;;5050042;28;19913;-76
2022/06/02 02:19:13;;;;;;;;;;;20.30;41.50;;;;;;5041657;28;19913;-77
2022/06/02 02:21:45;;;;;;;;;;;20.20;41.50;;;;;;5041259;28;19983;-77
2022/06/02 02:24:25;;;;;;;;;;;20.20;41.60;;;;;;5045831;28;20003;-77
2022/06/02 02:27:04;;;;;;;;;;;20.20;41.60;;;;;;5021947;28;19909;-76
2022/06/02 02:29:42;;;;;;;;;;;20.20;41.70;;;;;;5049144;28;19924;-76
2022/06/02 02:32:07;;;;;;;;;;;20.20;41.60;;;;;;5025244;28;19966;-76
2022/06/02 02:34:41;;;;;;;;;;;20.20;41.60;;;;;;5040585;28;19913;-76
2022/06/02 02:37:28;;;;;;;;;;;20.10;41.60;;;;;;5050195;28;19971;-77
2022/06/02 02:39:59;;;;;;;;;;;20.10;41.60;;;;;;5041616;28;19924;-77
2022/06/02 02:42:28;;;;;;;;;;;20.10;41.60;;;;;;5032085;28;19956;-76
2022/06/02 02:45:12;;;;;;;;;;;20.10;41.90;;;;;;5041594;28;19952;-76
2022/06/02 02:47:51;;;;;;;;;;;20.10;42.10;;;;;;5041683;28;19917;-76
2022/06/02 02:50:17;;;;;;;;;;;20.00;41.90;;;;;;5042352;28;19923;-75
2022/06/02 02:52:57;;;;;;;;;;;20.00;41.90;;;;;;5049411;28;19912;-76
2022/06/02 02:55:33;;;;;;;;;;;20.00;41.90;;;;;;5049143;28;19936;-76
2022/06/02 02:58:14;;;;;;;;;;;20.00;42.00;;;;;;5048783;28;19921;-75
2022/06/02 03:00:59;;;;;;;;;;;20.00;42.00;;;;;;5047084;28;20036;-75
2022/06/02 03:03:34;;;;;;;;;;;19.90;41.70;;;;;;5021162;28;20387;-75
2022/06/02 03:06:18;;;;;;;;;;;19.90;41.70;;;;;;5051952;28;19917;-75
2022/06/02 03:08:51;;;;;;;;;;;19.90;41.80;;;;;;5034202;28;19988;-75
2022/06/02 03:11:22;;;;;;;;;;;19.90;41.90;;;;;;5052254;28;19925;-75
2022/06/02 03:13:53;;;;;;;;;;;19.90;41.90;;;;;;5048712;28;19959;-75
2022/06/02 03:16:20;;;;;;;;;;;19.90;41.70;;;;;;5043818;28;19966;-75
2022/06/02 03:19:05;;;;;;;;;;;19.90;41.90;;;;;;5051518;28;19921;-75
2022/06/02 03:21:44;;;;;;;;;;;19.90;41.80;;;;;;5029163;28;20180;-75
2022/06/02 03:24:17;;;;;;;;;;;19.80;41.80;;;;;;5049619;28;19913;-75
2022/06/02 03:26:43;;;;;;;;;;;19.80;41.80;;;;;;5042238;28;19912;-75
2022/06/02 03:29:32;;;;;;;;;;;19.80;41.90;;;;;;5052746;28;19913;-75
2022/06/02 03:32:00;;;;;;;;;;;19.80;42.00;;;;;;5049468;28;19994;-76
2022/06/02 03:34:38;;;;;;;;;;;19.80;41.90;;;;;;5044568;28;19960;-76
2022/06/02 03:37:09;;;;;;;;;;;19.80;42.00;;;;;;5037457;28;19917;-78
2022/06/02 03:39:53;;;;;;;;;;;19.80;42.20;;;;;;5036210;28;20395;-78
2022/06/02 03:42:28;;;;;;;;;;;19.70;41.90;;;;;;5044322;28;19921;-78
2022/06/02 03:45:17;;;;;;;;;;;19.70;41.90;;;;;;5025716;28;19917;-78
2022/06/02 03:47:49;;;;;;;;;;;19.70;41.90;;;;;;5025575;28;19916;-77
2022/06/02 03:50:35;;;;;;;;;;;19.70;41.90;;;;;;5051717;28;19968;-76
2022/06/02 03:53:04;;;;;;;;;;;19.70;42.00;;;;;;5045103;28;19917;-76
2022/06/02 03:55:32;;;;;;;;;;;19.70;41.80;;;;;;5052502;28;19913;-76
2022/06/02 03:58:09;;;;;;;;;;;19.70;42.00;;;;;;5042800;28;20664;-76
2022/06/02 04:00:35;;;;;;;;;;;19.70;42.00;;;;;;5045154;28;19939;-76
2022/06/02 04:03:02;;;;;;;;;;;19.70;42.00;;;;;;5044837;28;20368;-76
2022/06/02 04:05:27;;;;;;;;;;;19.70;42.00;;;;;;5032393;28;19925;-76
2022/06/02 04:08:02;;;;;;;;;;;19.70;41.80;;;;;;5034182;28;19913;-76
2022/06/02 04:10:42;;;;;;;;;;;19.70;41.90;;;;;;5047137;28;19913;-76
2022/06/02 04:13:39;;;;;;;;;;;19.60;42.00;;;;;;5048694;28;19913;-76
2022/06/02 04:16:23;;;;;;;;;;;19.70;42.20;;;;;;5042271;28;19972;-76
2022/06/02 04:18:54;;;;;;;;;;;19.70;42.10;;;;;;5046175;28;19913;-77
2022/06/02 04:21:19;;;;;;;;;;;19.70;42.10;;;;;;5026557;28;20384;-76
2022/06/02 04:23:53;;;;;;;;;;;19.70;42.00;;;;;;5044528;28;19912;-76
2022/06/02 04:26:27;;;;;;;;;;;19.70;42.00;;;;;;5029021;28;19917;-76
2022/06/02 04:28:56;;;;;;;;;;;19.70;41.90;;;;;;5052638;28;19909;-76
2022/06/02 04:31:41;;;;;;;;;;;19.70;42.00;;;;;;5034660;28;19936;-76
2022/06/02 04:34:06;;;;;;;;;;;19.70;41.90;;;;;;5049925;28;20390;-76
2022/06/02 04:36:39;;;;;;;;;;;19.70;41.70;;;;;;5049790;28;19999;-76
2022/06/02 04:39:26;;;;;;;;;;;19.80;41.90;;;;;;5027674;28;20357;-76
2022/06/02 04:41:57;;;;;;;;;;;19.80;41.70;;;;;;5042974;28;19947;-76
2022/06/02 04:45:01;;;;;;;;;;;19.90;42.10;;;;;;5042374;28;20313;-77
2022/06/02 04:47:32;;;;;;;;;;;19.90;41.90;;;;;;4951212;29;20367;-76
2022/06/02 04:50:03;;;;;;;;;;;20.00;42.10;;;;;;4966588;28;20362;-76
2022/06/02 04:52:48;;;;;;;;;;;20.00;42.00;;;;;;5010890;28;19913;-76
2022/06/02 04:55:26;;;;;;;;;;;20.00;42.40;;;;;;5045295;28;19913;-76
2022/06/02 04:57:56;;;;;;;;;;;20.10;42.40;;;;;;5048404;28;19921;-77
2022/06/02 05:00:57;;;;;;;;;;;20.10;42.30;;;;;;5046179;28;19921;-76
2022/06/02 05:03:28;;;;;;;;;;;20.20;42.40;;;;;;4972780;28;19914;-76
2022/06/02 05:06:00;;;;;;;;;;;20.30;42.20;;;;;;5033583;28;19917;-77
2022/06/02 05:08:38;;;;;;;;;;;20.40;42.40;;;;;;5027858;28;20558;-76
2022/06/02 05:11:10;;;;;;;;;;;20.50;42.10;;;;;;5048311;28;19959;-76
2022/06/02 05:13:38;;;;;;;;;;;20.60;42.30;;;;;;5032809;28;20586;-76
2022/06/02 05:16:22;;;;;;;;;;;20.80;42.00;;;;;;5044335;28;19955;-76
2022/06/02 05:19:08;;;;;;;;;;;20.90;41.80;;;;;;5051982;28;19913;-77
2022/06/02 05:21:52;;;;;;;;;;;21.00;41.70;;;;;;5024164;28;20033;-76
2022/06/02 05:24:30;;;;;;;;;;;21.10;41.60;;;;;;5048323;28;19994;-76
2022/06/02 05:27:17;;;;;;;;;;;21.30;41.60;;;;;;5041158;28;19917;-76
2022/06/02 05:30:01;;;;;;;;;;;21.30;41.40;;;;;;5037635;28;19920;-76
2022/06/02 05:32:45;;;;;;;;;;;21.20;41.10;;;;;;5051724;28;19985;-77
2022/06/02 05:35:35;;;;;;;;;;;21.20;41.00;;;;;;5043045;28;19917;-77
2022/06/02 05:38:33;;;;;;;;;;;21.20;40.80;;;;;;5037774;28;20032;-77
2022/06/02 05:41:13;;;;;;;;;;;21.20;40.90;;;;;;5008830;28;19921;-78
2022/06/02 05:44:11;;;;;;;;;;;21.20;41.30;;;;;;5031572;28;19909;-78
2022/06/02 05:46:37;;;;;;;;;;;21.30;41.50;;;;;;4976967;28;19967;-77
2022/06/02 05:49:20;;;;;;;;;;;21.60;41.10;;;;;;5031280;28;19913;-77
2022/06/02 05:51:45;;;;;;;;;;;21.80;40.80;;;;;;5031591;28;20403;-77
2022/06/02 05:54:14;;;;;;;;;;;22.00;40.50;;;;;;5013670;28;19944;-76
2022/06/02 05:56:39;;;;;;;;;;;21.90;40.00;;;;;;5031473;28;19905;-76
2022/06/02 05:59:04;;;;;;;;;;;21.70;39.90;;;;;;5030956;28;19913;-77
2022/06/02 06:01:48;;;;;;;;;;;21.60;40.30;;;;;;5013479;28;19913;-77
2022/06/02 06:04:30;;;;;;;;;;;22.30;39.90;;;;;;5030974;28;19913;-75
2022/06/02 06:07:00;;;;;;;;;;;23.00;38.30;;;;;;5031374;28;19920;-75
2022/06/02 06:09:50;;;;;;;;;;;23.90;37.20;;;;;;5030813;28;20300;-75
2022/06/02 06:12:35;;;;;;;;;;;24.50;36.20;;;;;;5013540;28;19917;-75
2022/06/02 06:15:21;;;;;;;;;;;24.80;35.70;;;;;;5031143;28;19913;-75
2022/06/02 06:17:54;;;;;;;;;;;24.90;35.10;;;;;;5031123;28;19917;-75
2022/06/02 06:20:35;;;;;;;;;;;25.20;35.30;;;;;;5030699;28;20000;-74
2022/06/02 06:23:14;;;;;;;;;;;25.50;35.00;;;;;;5031151;28;19913;-75
2022/06/02 06:25:40;;;;;;;;;;;25.40;34.70;;;;;;5030973;28;20403;-76
2022/06/02 06:28:16;;;;;;;;;;;25.60;35.20;;;;;;5028706;28;19913;-75
2022/06/02 06:31:01;;;;;;;;;;;25.90;35.30;;;;;;5011961;28;19913;-74
2022/06/02 06:33:35;;;;;;;;;;;26.20;34.90;;;;;;5011294;28;19917;-74
2022/06/02 06:36:16;;;;;;;;;;;26.30;35.00;;;;;;5029518;28;19913;-76
2022/06/02 06:38:51;;;;;;;;;;;26.50;34.60;;;;;;5030170;28;19909;-77
2022/06/02 06:41:32;;;;;;;;;;;26.80;33.50;;;;;;5034061;28;19936;-76
2022/06/02 06:44:01;;;;;;;;;;;26.80;33.40;;;;;;5033703;28;19913;-76
2022/06/02 06:46:29;;;;;;;;;;;26.90;32.90;;;;;;5033861;28;19920;-76
2022/06/02 06:49:09;;;;;;;;;;;26.80;33.40;;;;;;5033521;28;19913;-76
2022/06/02 06:51:43;;;;;;;;;;;26.90;33.30;;;;;;5033636;28;19916;-76
2022/06/02 06:54:08;;;;;;;;;;;26.80;33.00;;;;;;5033202;28;19913;-77
2022/06/02 06:56:37;;;;;;;;;;;26.80;32.70;;;;;;5033867;28;19917;-76
2022/06/02 06:59:14;;;;;;;;;;;26.80;32.70;;;;;;5033580;28;19920;-76
2022/06/02 07:01:52;;;;;;;;;;;26.80;32.50;;;;;;5015852;28;20004;-76
2022/06/02 07:04:17;;;;;;;;;;;26.80;32.30;;;;;;5033251;28;20456;-76
2022/06/02 07:06:54;;;;;;;;;;;26.90;31.80;;;;;;5015710;28;19913;-77
2022/06/02 07:09:32;;;;;;;;;;;27.00;31.80;;;;;;5032897;28;19909;-76
2022/06/02 07:15:06;;;;;;;;;;;27.30;31.40;;;;;;5033243;28;19920;-76
2022/06/02 07:17:37;;;;;;;;;;;27.60;30.90;;;;;;5033357;28;19960;-76
2022/06/02 07:20:06;;;;;;;;;;;27.80;30.60;;;;;;5033020;28;19914;-77
2022/06/02 07:22:37;;;;;;;;;;;27.90;30.50;;;;;;5033274;28;19913;-76
2022/06/02 07:25:09;;;;;;;;;;;28.20;30.40;;;;;;5033100;28;19909;-76
2022/06/02 07:27:46;;;;;;;;;;;28.40;30.00;;;;;;5033208;28;19909;-76
2022/06/02 07:30:14;;;;;;;;;;;28.70;29.60;;;;;;5033070;28;20058;-76
2022/06/02 07:33:02;;;;;;;;;;;28.90;29.50;;;;;;5033015;28;19909;-76
2022/06/02 07:35:46;;;;;;;;;;;29.20;29.50;;;;;;5015252;28;20304;-77
2022/06/02 07:38:31;;;;;;;;;;;29.40;29.50;;;;;;5015190;28;19967;-77
2022/06/02 07:40:57;;;;;;;;;;;29.50;29.20;;;;;;5014747;28;20333;-76
2022/06/02 07:43:31;;;;;;;;;;;29.50;29.20;;;;;;5032832;28;19913;-77
2022/06/02 07:46:08;;;;;;;;;;;29.50;29.10;;;;;;5015197;28;20008;-77
2022/06/02 07:48:52;;;;;;;;;;;29.30;29.10;;;;;;5032550;28;19913;-76
2022/06/02 07:51:23;;;;;;;;;;;29.20;29.40;;;;;;5032407;28;20269;-76
2022/06/02 07:53:48;;;;;;;;;;;29.00;29.60;;;;;;5032527;28;19909;-76
2022/06/02 07:56:33;;;;;;;;;;;28.90;29.70;;;;;;5014999;28;19964;-77
2022/06/02 07:59:16;;;;;;;;;;;28.70;29.90;;;;;;5032221;28;19910;-77
2022/06/02 08:02:00;;;;;;;;;;;28.50;29.90;;;;;;5032965;28;19962;-77
2022/06/02 08:04:26;;;;;;;;;;;28.30;30.30;;;;;;5014385;28;19920;-76
2022/06/02 08:07:00;;;;;;;;;;;28.20;30.50;;;;;;5032385;28;19909;-77
2022/06/02 08:09:44;;;;;;;;;;;28.10;30.50;;;;;;5032228;28;19909;-77
2022/06/02 08:12:28;;;;;;;;;;;27.90;30.80;;;;;;5014355;28;20007;-77
2022/06/02 08:15:13;;;;;;;;;;;28.00;30.90;;;;;;5015105;28;20000;-77
2022/06/02 08:17:53;;;;;;;;;;;28.00;30.70;;;;;;5016216;28;19917;-78
2022/06/02 08:20:37;;;;;;;;;;;28.10;30.50;;;;;;5033717;28;20336;-77
2022/06/02 08:23:06;;;;;;;;;;;28.20;30.50;;;;;;5033983;28;19916;-78
2022/06/02 08:25:43;;;;;;;;;;;28.50;30.10;;;;;;5016184;28;19967;-78
2022/06/02 08:28:16;;;;;;;;;;;28.80;29.90;;;;;;5035748;28;19993;-77
2022/06/02 08:30:58;;;;;;;;;;;29.20;30.30;;;;;;5014628;28;20000;-76
2022/06/02 08:33:30;;;;;;;;;;;29.40;30.40;;;;;;5032228;28;20373;-77
2022/06/02 08:36:02;;;;;;;;;;;29.50;30.30;;;;;;5032334;28;19909;-77
2022/06/02 08:38:42;;;;;;;;;;;29.30;30.20;;;;;;5031546;28;19999;-77
2022/06/02 08:41:30;;;;;;;;;;;29.00;30.80;;;;;;5032012;28;19913;-76
2022/06/02 08:44:13;;;;;;;;;;;29.00;30.70;;;;;;5013989;28;19913;-76
2022/06/02 08:46:58;;;;;;;;;;;29.10;30.50;;;;;;5032319;28;19913;-77
2022/06/02 08:49:43;;;;;;;;;;;29.10;30.60;;;;;;5032143;28;20344;-77
2022/06/02 08:52:20;;;;;;;;;;;29.00;30.50;;;;;;5032080;28;19913;-77
2022/06/02 08:55:04;;;;;;;;;;;29.00;30.50;;;;;;5031582;28;19913;-77
2022/06/02 08:57:48;;;;;;;;;;;28.80;30.80;;;;;;5031779;28;19913;-77
2022/06/02 09:00:19;;;;;;;;;;;28.60;31.30;;;;;;5031097;28;20369;-77
2022/06/02 09:02:44;;;;;;;;;;;28.40;31.40;;;;;;5012853;28;19920;-76
2022/06/02 09:05:28;;;;;;;;;;;28.30;32.10;;;;;;5031226;28;20307;-77
2022/06/02 09:08:17;;;;;;;;;;;28.30;31.50;;;;;;5031558;28;19959;-77
2022/06/02 09:10:54;;;;;;;;;;;28.20;31.80;;;;;;5030859;28;20381;-77
2022/06/02 09:13:32;;;;;;;;;;;28.10;32.00;;;;;;5030995;28;19920;-76
2022/06/02 09:16:19;;;;;;;;;;;28.00;32.00;;;;;;5013340;28;19920;-76
2022/06/02 09:19:00;;;;;;;;;;;27.90;32.20;;;;;;5030797;28;19915;-76
2022/06/02 09:21:29;;;;;;;;;;;27.90;32.30;;;;;;5030907;28;19917;-76
2022/06/02 09:24:13;;;;;;;;;;;27.90;32.20;;;;;;5013194;28;20423;-76
2022/06/02 09:26:50;;;;;;;;;;;27.90;32.20;;;;;;5030808;28;20368;-76
2022/06/02 09:29:48;;;;;;;;;;;27.80;32.40;;;;;;5030498;28;19944;-76
2022/06/02 09:32:32;;;;;;;;;;;27.80;32.40;;;;;;4990074;28;19944;-77
2022/06/02 09:35:13;;;;;;;;;;;27.80;32.40;;;;;;5035667;28;19913;-77
2022/06/02 09:37:50;;;;;;;;;;;27.70;32.40;;;;;;5019962;28;19920;-77
2022/06/02 09:40:35;;;;;;;;;;;27.80;32.40;;;;;;5024117;28;19917;-77
2022/06/02 09:43:06;;;;;;;;;;;27.80;32.30;;;;;;5039150;28;19913;-77
2022/06/02 09:45:38;;;;;;;;;;;27.80;32.40;;;;;;5016637;28;19913;-77
2022/06/02 09:48:24;;;;;;;;;;;27.80;32.50;;;;;;5030671;28;19956;-77
2022/06/02 09:50:55;;;;;;;;;;;27.60;32.60;;;;;;5030727;28;19909;-77
2022/06/02 09:53:39;;;;;;;;;;;27.20;33.20;;;;;;5011899;28;19924;-77
2022/06/02 09:56:05;;;;;;;;;;;26.90;33.80;;;;;;5011780;28;19913;-77
2022/06/02 09:58:49;;;;;;;;;;;26.70;35.10;;;;;;5012473;28;19917;-77
2022/06/02 10:01:24;;;;;;;;;;;26.50;34.70;;;;;;5012470;28;19955;-77
2022/06/02 10:03:59;;;;;;;;;;;26.40;35.00;;;;;;5012478;28;19909;-76
2022/06/02 10:06:43;;;;;;;;;;;26.10;35.40;;;;;;5030318;28;19924;-76
2022/06/02 10:09:11;;;;;;;;;;;26.00;35.60;;;;;;5029795;28;19909;-77
2022/06/02 10:11:40;;;;;;;;;;;25.90;35.90;;;;;;5031411;28;19917;-76
2022/06/02 10:14:25;;;;;;;;;;;25.80;36.10;;;;;;5030413;28;19913;-78
2022/06/02 10:16:54;;;;;;;;;;;25.70;36.30;;;;;;5014663;28;19909;-79
2022/06/02 10:19:28;;;;;;;;;;;25.60;36.50;;;;;;5030355;28;19913;-79
2022/06/02 10:22:00;;;;;;;;;;;25.40;36.60;;;;;;5030762;28;19965;-79
2022/06/02 10:24:44;;;;;;;;;;;25.40;36.90;;;;;;5030137;28;20352;-79
2022/06/02 10:27:20;;;;;;;;;;;25.30;37.10;;;;;;5035511;28;19913;-78
2022/06/02 10:29:56;;;;;;;;;;;25.20;37.30;;;;;;5030408;28;19909;-79
2022/06/02 10:32:21;;;;;;;;;;;25.10;37.30;;;;;;5030738;28;19928;-78
2022/06/02 10:35:09;;;;;;;;;;;25.10;37.60;;;;;;5012437;28;19917;-78
2022/06/02 10:37:34;;;;;;;;;;;25.10;37.60;;;;;;5030731;28;20043;-79
2022/06/02 10:40:15;;;;;;;;;;;25.00;37.80;;;;;;5030074;28;19984;-78
2022/06/02 10:42:40;;;;;;;;;;;24.90;37.80;;;;;;5015650;28;19913;-78
2022/06/02 10:45:26;;;;;;;;;;;24.80;38.00;;;;;;5030501;28;19913;-79
2022/06/02 10:48:06;;;;;;;;;;;24.80;38.10;;;;;;5013005;28;19999;-79
2022/06/02 10:50:35;;;;;;;;;;;24.90;38.20;;;;;;5030132;28;19913;-79
2022/06/02 10:53:03;;;;;;;;;;;25.00;38.00;;;;;;5030273;28;19913;-78
2022/06/02 10:56:04;;;;;;;;;;;25.00;37.90;;;;;;5030289;28;19996;-78
2022/06/02 10:58:48;;;;;;;;;;;24.90;38.20;;;;;;4949765;29;20047;-78
2022/06/02 11:01:32;;;;;;;;;;;24.70;38.40;;;;;;5023734;28;20365;-80
2022/06/02 11:04:32;;;;;;;;;;;24.60;38.50;;;;;;5011990;28;19913;-80
2022/06/02 11:07:13;;;;;;;;;;;24.50;38.60;;;;;;5011452;28;20332;-80
2022/06/02 11:09:56;;;;;;;;;;;24.50;38.80;;;;;;5030325;28;19920;-80
2022/06/02 11:12:24;;;;;;;;;;;24.50;39.00;;;;;;5012483;28;19921;-80
2022/06/02 11:15:12;;;;;;;;;;;24.40;39.00;;;;;;5030545;28;20288;-80
2022/06/02 11:17:56;;;;;;;;;;;24.40;39.10;;;;;;5012053;28;19909;-79
2022/06/02 11:20:40;;;;;;;;;;;24.30;39.10;;;;;;5030651;28;19909;-80
2022/06/02 11:23:05;;;;;;;;;;;24.30;39.20;;;;;;5030642;28;20408;-79
2022/06/02 11:25:45;;;;;;;;;;;24.30;39.30;;;;;;5032999;28;20383;-79
2022/06/02 11:28:34;;;;;;;;;;;24.30;39.40;;;;;;5038601;28;19913;-78
2022/06/02 11:31:23;;;;;;;;;;;24.30;39.40;;;;;;5030837;28;20299;-79
2022/06/02 11:33:58;;;;;;;;;;;24.40;39.20;;;;;;5042918;28;19959;-79
2022/06/02 11:36:26;;;;;;;;;;;24.40;38.90;;;;;;5047291;28;19916;-78
2022/06/02 11:39:12;;;;;;;;;;;24.50;38.90;;;;;;5035462;28;20338;-78
2022/06/02 11:41:38;;;;;;;;;;;24.50;38.70;;;;;;5034701;28;19917;-79
2022/06/02 11:44:14;;;;;;;;;;;24.50;38.70;;;;;;5053342;28;19912;-78
2022/06/02 11:46:48;;;;;;;;;;;24.50;38.60;;;;;;5041010;28;19911;-78
2022/06/02 11:49:33;;;;;;;;;;;24.50;38.50;;;;;;5021598;28;19913;-78
2022/06/02 11:52:17;;;;;;;;;;;24.50;38.50;;;;;;5042654;28;20012;-80
2022/06/02 11:54:59;;;;;;;;;;;24.50;38.50;;;;;;5043934;28;19913;-78
2022/06/02 11:57:44;;;;;;;;;;;24.50;38.60;;;;;;5023866;28;19917;-77
2022/06/02 12:00:18;;;;;;;;;;;24.50;38.60;;;;;;5044292;28;20288;-78
2022/06/02 12:02:44;;;;;;;;;;;24.50;38.60;;;;;;5047209;28;19917;-78
2022/06/02 12:05:13;;;;;;;;;;;24.50;38.50;;;;;;5027291;28;19925;-78
2022/06/02 12:07:53;;;;;;;;;;;24.50;38.40;;;;;;5032027;28;19917;-78
2022/06/02 12:10:27;;;;;;;;;;;24.50;38.50;;;;;;5027262;28;19974;-78
2022/06/02 12:13:01;;;;;;;;;;;24.60;38.70;;;;;;5038123;28;19948;-77
2022/06/02 12:15:45;;;;;;;;;;;24.50;38.60;;;;;;5049820;28;20427;-77
2022/06/02 12:18:28;;;;;;;;;;;24.60;38.60;;;;;;5027236;28;19978;-77
2022/06/02 12:21:09;;;;;;;;;;;24.60;38.60;;;;;;5044169;28;19917;-77
2022/06/02 12:23:37;;;;;;;;;;;24.60;38.60;;;;;;5047983;28;19999;-78
2022/06/02 12:26:09;;;;;;;;;;;24.60;38.70;;;;;;5040190;28;19915;-78
2022/06/02 12:28:42;;;;;;;;;;;24.60;38.80;;;;;;5053522;28;19909;-78
2022/06/02 12:31:15;;;;;;;;;;;24.60;38.80;;;;;;5052492;28;19916;-77
2022/06/02 12:33:58;;;;;;;;;;;24.60;38.80;;;;;;5051899;28;20336;-77
2022/06/02 12:36:39;;;;;;;;;;;24.60;38.80;;;;;;5042663;28;20434;-78
2022/06/02 12:39:23;;;;;;;;;;;24.70;38.90;;;;;;5048388;28;20265;-78
2022/06/02 12:42:14;;;;;;;;;;;24.60;38.80;;;;;;5048920;28;19973;-78
2022/06/02 12:44:40;;;;;;;;;;;24.70;38.90;;;;;;5043733;28;19956;-77
2022/06/02 12:47:23;;;;;;;;;;;24.70;39.00;;;;;;5046836;28;19936;-77
2022/06/02 12:49:52;;;;;;;;;;;24.70;39.00;;;;;;5021956;28;19920;-77
2022/06/02 12:52:36;;;;;;;;;;;24.60;39.60;;;;;;5045841;28;19920;-78
2022/06/02 12:55:13;;;;;;;;;;;24.60;39.10;;;;;;5042293;28;19996;-79
2022/06/02 12:57:39;;;;;;;;;;;24.60;39.00;;;;;;5048576;28;19920;-78
2022/06/02 13:00:19;;;;;;;;;;;24.60;39.10;;;;;;5050394;28;20335;-78
2022/06/02 13:03:05;;;;;;;;;;;24.60;39.10;;;;;;5044183;28;19923;-78
2022/06/02 13:06:01;;;;;;;;;;;24.60;39.20;;;;;;5032507;28;19916;-78
2022/06/02 13:08:30;;;;;;;;;;;24.60;39.20;;;;;;5045947;28;20656;-79
2022/06/02 13:11:01;;;;;;;;;;;24.50;39.30;;;;;;5027163;28;19917;-79
2022/06/02 13:13:50;;;;;;;;;;;24.50;39.50;;;;;;5024067;28;19923;-78
2022/06/02 13:16:18;;;;;;;;;;;24.40;39.40;;;;;;5047098;28;19913;-78
2022/06/02 13:19:03;;;;;;;;;;;24.40;39.50;;;;;;5038567;28;19913;-78
2022/06/02 13:21:44;;;;;;;;;;;24.40;39.50;;;;;;5044008;28;19924;-79
2022/06/02 13:24:25;;;;;;;;;;;24.40;39.50;;;;;;5032146;28;19955;-78
2022/06/02 13:27:10;;;;;;;;;;;24.50;39.60;;;;;;5041498;28;19959;-78
2022/06/02 13:29:36;;;;;;;;;;;24.50;39.60;;;;;;5039010;28;19913;-78
2022/06/02 13:32:17;;;;;;;;;;;24.40;39.60;;;;;;5048027;28;19920;-79
2022/06/02 13:35:01;;;;;;;;;;;24.40;39.70;;;;;;5020475;28;19921;-78
2022/06/02 13:37:26;;;;;;;;;;;24.30;39.70;;;;;;5038277;28;20327;-78
2022/06/02 13:40:16;;;;;;;;;;;24.30;39.70;;;;;;5041519;28;19936;-77
2022/06/02 13:42:59;;;;;;;;;;;24.30;39.80;;;;;;5021656;28;19952;-78
2022/06/02 13:45:44;;;;;;;;;;;24.30;39.80;;;;;;5042599;28;20098;-80
2022/06/02 13:48:27;;;;;;;;;;;24.30;40.00;;;;;;5024678;28;19916;-81
2022/06/02 13:50:59;;;;;;;;;;;24.20;40.00;;;;;;5045617;28;19912;-80
2022/06/02 13:53:36;;;;;;;;;;;24.20;40.10;;;;;;5050766;28;19913;-79
2022/06/02 13:59:00;;;;;;;;;;;24.10;40.30;;;;;;5037224;28;20384;-79
2022/06/02 14:01:26;;;;;;;;;;;24.00;40.30;;;;;;5040443;28;19944;-80
2022/06/02 14:04:04;;;;;;;;;;;23.90;40.40;;;;;;5053935;28;19936;-80
2022/06/02 14:06:33;;;;;;;;;;;23.90;40.50;;;;;;5057637;28;19924;-78
2022/06/02 14:09:05;;;;;;;;;;;23.90;40.60;;;;;;5052651;28;20451;-79
2022/06/02 14:11:41;;;;;;;;;;;23.90;40.70;;;;;;5067511;28;19917;-80
2022/06/02 14:14:13;;;;;;;;;;;23.80;40.70;;;;;;5028544;28;19999;-80
2022/06/02 14:16:43;;;;;;;;;;;23.80;40.80;;;;;;5023372;28;19917;-78
2022/06/02 14:19:29;;;;;;;;;;;23.80;40.70;;;;;;5043151;28;19913;-79
2022/06/02 14:22:04;;;;;;;;;;;23.70;40.80;;;;;;4988565;28;19917;-79
2022/06/02 14:24:35;;;;;;;;;;;23.70;40.70;;;;;;5020392;28;20428;-78
2022/06/02 14:27:00;;;;;;;;;;;23.70;40.80;;;;;;5042701;28;20668;-80
2022/06/02 14:29:29;;;;;;;;;;;23.70;41.10;;;;;;5038859;28;19927;-80
2022/06/02 14:32:13;;;;;;;;;;;23.60;41.00;;;;;;5037406;28;19917;-78
2022/06/02 14:34:49;;;;;;;;;;;23.60;41.00;;;;;;5039566;28;19970;-80
2022/06/02 14:37:34;;;;;;;;;;;23.60;41.10;;;;;;5022131;28;20373;-76
2022/06/02 14:40:06;;;;;;;;;;;23.60;41.10;;;;;;5036201;28;19986;-77
2022/06/02 14:45:37;;;;;;;;;;;23.60;41.30;;;;;;5037565;28;19924;-77
2022/06/02 14:48:09;;;;;;;;;;;23.60;41.20;;;;;;5038624;28;19913;-78
2022/06/02 14:50:35;;;;;;;;;;;23.60;41.20;;;;;;5020503;28;20300;-78
2022/06/02 14:53:12;;;;;;;;;;;23.60;41.50;;;;;;5037694;28;20365;-78
2022/06/02 14:55:56;;;;;;;;;;;23.60;41.80;;;;;;5038259;28;19917;-79
2022/06/02 14:58:39;;;;;;;;;;;23.60;41.80;;;;;;5034508;28;20035;-77
2022/06/02 15:01:24;;;;;;;;;;;23.50;42.30;;;;;;5040979;28;19928;-77
2022/06/02 15:04:09;;;;;;;;;;;23.50;43.60;;;;;;5023500;28;19919;-77
2022/06/02 15:06:42;;;;;;;;;;;23.50;43.50;;;;;;5026495;28;19960;-76
2022/06/02 15:09:28;;;;;;;;;;;23.50;43.70;;;;;;5040673;28;21934;-78
2022/06/02 15:12:06;;;;;;;;;;;23.50;43.50;;;;;;5044848;28;19920;-79
2022/06/02 15:14:57;;;;;;;;;;;23.50;43.00;;;;;;5040602;28;19920;-77
2022/06/02 15:17:33;;;;;;;;;;;23.60;43.50;;;;;;5011647;28;19946;-78
2022/06/02 15:20:18;;;;;;;;;;;23.60;43.50;;;;;;5027383;28;19971;-79
2022/06/02 15:22:47;;;;;;;;;;;23.60;44.00;;;;;;5043400;28;19916;-76
2022/06/02 15:25:35;;;;;;;;;;;23.70;44.00;;;;;;5043262;28;20315;-76